createdAt,value
2023-11-13T00:01:25.762Z,96969.75
2023-11-13T00:03:53.765Z,96968.47
2023-11-13T00:06:21.486Z,96974.56
2023-11-13T00:08:49.124Z,96974.91
2023-11-13T00:11:17.039Z,96973.44
2023-11-13T00:13:45.503Z,96976.56
2023-11-13T00:16:13.376Z,96978.53
2023-11-13T00:18:43.252Z,96971.91
2023-11-13T00:21:12.312Z,96963.97
2023-11-13T00:23:40.076Z,96981.16
2023-11-13T00:26:07.744Z,96981.97
2023-11-13T00:28:36.976Z,96985.13
2023-11-13T00:31:05.211Z,96983.97
2023-11-13T00:33:32.905Z,96977.03
2023-11-13T00:36:02.048Z,96966.94
2023-11-13T00:38:29.682Z,96965.47
2023-11-13T00:40:59.223Z,96960.19
2023-11-13T00:43:29.064Z,96966.94
2023-11-13T00:45:56.789Z,96971.41
2023-11-13T00:48:24.485Z,96961.50
2023-11-13T00:50:52.243Z,96966.44
2023-11-13T00:53:21.295Z,96952.41
2023-11-13T00:55:49.713Z,96959.97
2023-11-13T00:58:17.806Z,96950.75
2023-11-13T01:00:45.736Z,96949.44
2023-11-13T01:03:13.467Z,96950.28
2023-11-13T01:05:41.153Z,96948.28
2023-11-13T01:08:08.793Z,96939.88
2023-11-13T01:10:37.858Z,96935.53
2023-11-13T01:13:05.646Z,96937.03
2023-11-13T01:15:33.444Z,96927.16
2023-11-13T01:18:01.308Z,96931.78
2023-11-13T01:20:29.208Z,96923.84
2023-11-13T01:22:57.246Z,96905.06
2023-11-13T01:25:24.992Z,96910.69
2023-11-13T01:27:54.034Z,96911.19
2023-11-13T01:30:22.021Z,96914.00
2023-11-13T01:32:49.720Z,96920.56
2023-11-13T01:35:17.452Z,96924.56
2023-11-13T01:37:45.602Z,96928.84
2023-11-13T01:40:13.880Z,96928.09
2023-11-13T01:42:41.569Z,96928.25
2023-11-13T01:45:11.202Z,96938.47
2023-11-13T01:47:39.598Z,96942.28
2023-11-13T01:50:08.218Z,96926.31
2023-11-13T01:52:35.938Z,96935.88
2023-11-13T01:55:04.260Z,96941.66
2023-11-13T01:57:32.749Z,96935.09
2023-11-13T02:00:01.035Z,96932.25
2023-11-13T02:02:30.156Z,96910.28
2023-11-13T02:04:57.871Z,96913.09
2023-11-13T02:07:25.534Z,96915.09
2023-11-13T02:09:53.373Z,96902.91
2023-11-13T02:12:21.453Z,96901.91
2023-11-13T02:14:49.200Z,96910.66
2023-11-13T02:17:16.984Z,96917.09
2023-11-13T02:19:46.900Z,96908.69
2023-11-13T02:22:14.806Z,96913.16
2023-11-13T02:24:44.039Z,96902.41
2023-11-13T02:27:11.815Z,96894.34
2023-11-13T02:29:39.570Z,96898.63
2023-11-13T02:32:08.482Z,96892.53
2023-11-13T02:34:36.159Z,96894.47
2023-11-13T02:37:05.394Z,96898.31
2023-11-13T02:39:33.509Z,96888.41
2023-11-13T02:42:03.171Z,96897.13
2023-11-13T02:44:31.162Z,96908.47
2023-11-13T02:46:58.830Z,96909.97
2023-11-13T02:49:26.579Z,96902.53
2023-11-13T02:51:54.249Z,96908.03
2023-11-13T02:54:22.117Z,96906.06
2023-11-13T02:56:49.795Z,96903.59
2023-11-13T02:59:18.749Z,96916.16
2023-11-13T03:01:46.495Z,96908.41
2023-11-13T03:04:14.286Z,96900.31
2023-11-13T03:06:41.952Z,96899.97
2023-11-13T03:09:10.828Z,96893.88
2023-11-13T03:11:38.812Z,96883.00
2023-11-13T03:14:06.602Z,96871.59
2023-11-13T03:16:35.896Z,96881.34
2023-11-13T03:19:03.682Z,96892.22
2023-11-13T03:21:31.352Z,96898.81
2023-11-13T03:23:59.164Z,96900.50
2023-11-13T03:26:30.041Z,96903.59
2023-11-13T03:28:58.021Z,96903.97
2023-11-13T03:31:25.768Z,96915.66
2023-11-13T03:33:55.670Z,96891.91
2023-11-13T03:36:23.338Z,96895.03
2023-11-13T03:38:51.004Z,96891.84
2023-11-13T03:41:19.195Z,96890.19
2023-11-13T03:43:47.272Z,96886.09
2023-11-13T03:46:14.968Z,96890.53
2023-11-13T03:48:42.633Z,96890.19
2023-11-13T03:51:11.794Z,96881.25
2023-11-13T03:53:39.403Z,96883.56
2023-11-13T03:56:08.378Z,96887.56
2023-11-13T03:58:36.094Z,96887.34
2023-11-13T04:01:04.811Z,96894.78
2023-11-13T04:03:32.505Z,96904.56
2023-11-13T04:06:00.208Z,96892.81
2023-11-13T04:08:29.713Z,96894.81
2023-11-13T04:10:57.830Z,96898.47
2023-11-13T04:13:26.285Z,96900.94
2023-11-13T04:15:54.123Z,96888.38
2023-11-13T04:18:22.657Z,96889.84
2023-11-13T04:20:50.301Z,96873.84
2023-11-13T04:23:17.985Z,96881.91
2023-11-13T04:25:48.548Z,96876.81
2023-11-13T04:28:16.524Z,96873.16
2023-11-13T04:30:44.288Z,96878.78
2023-11-13T04:33:12.065Z,96872.50
2023-11-13T04:35:40.160Z,96874.00
2023-11-13T04:38:07.810Z,96888.81
2023-11-13T04:40:35.492Z,96886.47
2023-11-13T04:43:07.112Z,96872.63
2023-11-13T04:45:36.151Z,96875.91
2023-11-13T04:48:04.294Z,96875.91
2023-11-13T04:50:31.950Z,96881.38
2023-11-13T04:52:59.636Z,96877.41
2023-11-13T04:55:27.340Z,96874.59
2023-11-13T04:57:55.002Z,96870.09
2023-11-13T05:00:24.029Z,96872.56
2023-11-13T05:02:51.773Z,96877.88
2023-11-13T05:05:19.476Z,96877.56
2023-11-13T05:07:47.127Z,96873.94
2023-11-13T05:10:14.859Z,96874.75
2023-11-13T05:12:42.504Z,96878.03
2023-11-13T05:15:10.975Z,96866.31
2023-11-13T05:17:40.042Z,96862.84
2023-11-13T05:20:08.944Z,96863.84
2023-11-13T05:22:36.734Z,96856.91
2023-11-13T05:25:05.014Z,96859.91
2023-11-13T05:27:32.802Z,96870.47
2023-11-13T05:30:00.661Z,96871.13
2023-11-13T05:32:28.512Z,96874.59
2023-11-13T05:34:57.579Z,96873.13
2023-11-13T05:37:25.205Z,96874.94
2023-11-13T05:39:52.914Z,96876.88
2023-11-13T05:42:24.281Z,96862.00
2023-11-13T05:44:52.234Z,96860.91
2023-11-13T05:47:20.001Z,96854.78
2023-11-13T05:49:48.518Z,96847.88
2023-11-13T05:52:18.760Z,96861.06
2023-11-13T05:54:46.594Z,96864.69
2023-11-13T05:57:14.373Z,96863.72
2023-11-13T05:59:42.113Z,96867.19
2023-11-13T06:02:12.716Z,96871.47
2023-11-13T06:04:44.761Z,96868.66
2023-11-13T06:07:12.821Z,96871.13
2023-11-13T06:09:43.518Z,96869.47
2023-11-13T06:12:11.607Z,96872.56
2023-11-13T06:14:40.597Z,96869.31
2023-11-13T06:17:09.022Z,96860.19
2023-11-13T06:19:36.751Z,96851.44
2023-11-13T06:22:04.695Z,96868.50
2023-11-13T06:24:32.342Z,96883.97
2023-11-13T06:27:01.474Z,96865.47
2023-11-13T06:29:29.144Z,96871.59
2023-11-13T06:31:57.481Z,96863.81
2023-11-13T06:34:25.336Z,96863.97
2023-11-13T06:36:56.141Z,96856.22
2023-11-13T06:39:24.561Z,96862.16
2023-11-13T06:41:53.625Z,96857.53
2023-11-13T06:44:22.660Z,96851.44
2023-11-13T06:46:50.405Z,96844.31
2023-11-13T06:49:19.881Z,96842.47
2023-11-13T06:51:47.702Z,96853.53
2023-11-13T06:54:15.495Z,96843.06
2023-11-13T06:56:43.429Z,96838.16
2023-11-13T06:59:12.181Z,96840.81
2023-11-13T07:01:42.150Z,96846.75
2023-11-13T07:04:11.189Z,96837.78
2023-11-13T07:06:39.207Z,96831.34
2023-11-13T07:09:11.901Z,96827.69
2023-11-13T07:11:44.099Z,96815.97
2023-11-13T07:14:11.887Z,96814.97
2023-11-13T07:16:41.953Z,96824.25
2023-11-13T07:19:10.472Z,96817.13
2023-11-13T07:21:39.266Z,96821.78
2023-11-13T07:24:09.111Z,96822.59
2023-11-13T07:26:37.027Z,96822.41
2023-11-13T07:29:05.374Z,96824.06
2023-11-13T07:31:33.430Z,96823.25
2023-11-13T07:34:02.576Z,96807.56
2023-11-13T07:36:32.264Z,96836.63
2023-11-13T07:39:00.364Z,96844.22
2023-11-13T07:41:28.028Z,96840.75
2023-11-13T07:43:57.614Z,96842.22
2023-11-13T07:46:25.343Z,96840.41
2023-11-13T07:48:53.053Z,96851.78
2023-11-13T07:51:22.020Z,96847.78
2023-11-13T07:53:51.157Z,96838.88
2023-11-13T07:56:20.611Z,96829.94
2023-11-13T07:58:48.356Z,96839.50
2023-11-13T08:01:17.807Z,96823.94
2023-11-13T08:03:45.534Z,96820.66
2023-11-13T08:06:14.127Z,96818.03
2023-11-13T08:08:43.097Z,96805.81
2023-11-13T08:11:11.784Z,96803.50
2023-11-13T08:13:39.480Z,96811.09
2023-11-13T08:16:09.527Z,96810.94
2023-11-13T08:18:37.216Z,96805.16
2023-11-13T08:21:05.182Z,96798.22
2023-11-13T08:23:32.873Z,96790.78
2023-11-13T08:26:02.023Z,96796.16
2023-11-13T08:28:33.007Z,96800.47
2023-11-13T08:31:04.893Z,96803.75
2023-11-13T08:33:35.022Z,96798.63
2023-11-13T08:36:05.349Z,96799.13
2023-11-13T08:38:32.976Z,96798.47
2023-11-13T08:41:01.971Z,96797.28
2023-11-13T08:43:30.988Z,96792.84
2023-11-13T08:46:01.235Z,96801.03
2023-11-13T08:48:29.751Z,96808.31
2023-11-13T08:51:01.045Z,96807.31
2023-11-13T08:53:29.868Z,96797.88
2023-11-13T08:55:58.327Z,96800.94
2023-11-13T08:58:27.516Z,96794.19
2023-11-13T09:00:55.429Z,96784.81
2023-11-13T09:03:23.232Z,96790.09
2023-11-13T09:05:51.383Z,96798.88
2023-11-13T09:08:19.087Z,96791.09
2023-11-13T09:10:46.844Z,96799.88
2023-11-13T09:13:14.915Z,96793.41
2023-11-13T09:15:45.283Z,96791.38
2023-11-13T09:18:13.820Z,96797.31
2023-11-13T09:20:43.668Z,96790.94
2023-11-13T09:23:11.750Z,96805.91
2023-11-13T09:25:39.627Z,96803.91
2023-11-13T09:28:08.884Z,96807.19
2023-11-13T09:30:36.786Z,96794.97
2023-11-13T09:33:08.213Z,96782.38
2023-11-13T09:35:35.941Z,96775.09
2023-11-13T09:38:03.555Z,96776.06
2023-11-13T09:40:35.785Z,96763.06
2023-11-13T09:43:09.018Z,96769.16
2023-11-13T09:45:38.422Z,96768.16
2023-11-13T09:48:09.541Z,96770.44
2023-11-13T09:50:39.297Z,96767.63
2023-11-13T09:53:07.550Z,96770.53
2023-11-13T09:55:35.646Z,96767.34
2023-11-13T09:58:03.517Z,96760.25
2023-11-13T10:00:34.087Z,96756.59
2023-11-13T10:03:02.374Z,96753.13
2023-11-13T10:05:33.200Z,96754.78
2023-11-13T10:08:01.669Z,96767.34
2023-11-13T10:10:30.663Z,96753.94
2023-11-13T10:13:01.786Z,96749.31
2023-11-13T10:15:30.582Z,96734.88
2023-11-13T10:18:00.049Z,96736.69
2023-11-13T10:20:28.689Z,96745.94
2023-11-13T10:23:08.066Z,96746.41
2023-11-13T10:25:42.597Z,96749.03
2023-11-13T10:28:10.689Z,96750.59
2023-11-13T10:30:55.104Z,96741.25
2023-11-13T10:33:24.134Z,96738.25
2023-11-13T10:35:52.197Z,96733.78
2023-11-13T10:38:22.440Z,96722.84
2023-11-13T10:40:57.448Z,96714.53
2023-11-13T10:43:33.431Z,96703.38
2023-11-13T10:46:02.871Z,96709.97
2023-11-13T10:48:33.731Z,96704.91
2023-11-13T10:51:05.716Z,96709.84
2023-11-13T10:53:36.877Z,96700.53
2023-11-13T10:56:06.505Z,96708.28
2023-11-13T10:58:34.389Z,96715.66
2023-11-13T11:01:04.148Z,96714.66
2023-11-13T11:03:33.863Z,96704.72
2023-11-13T11:06:07.735Z,96700.66
2023-11-13T11:08:38.626Z,96706.59
2023-11-13T11:11:07.972Z,96710.91
2023-11-13T11:13:37.166Z,96698.56
2023-11-13T11:16:25.164Z,96697.38
2023-11-13T11:18:57.858Z,96691.06
2023-11-13T11:21:41.255Z,96693.53
2023-11-13T11:24:14.178Z,96693.16
2023-11-13T11:26:51.772Z,96690.31
2023-11-13T11:29:32.908Z,96684.81
2023-11-13T11:32:00.943Z,96685.47
2023-11-13T11:34:32.167Z,96681.44
2023-11-13T11:37:03.268Z,96669.03
2023-11-13T11:39:45.731Z,96679.22
2023-11-13T11:42:18.149Z,96686.25
2023-11-13T11:45:00.271Z,96687.03
2023-11-13T11:47:29.484Z,96685.84
2023-11-13T11:49:59.152Z,96682.00
2023-11-13T11:52:43.157Z,96674.69
2023-11-13T11:55:15.134Z,96670.03
2023-11-13T11:57:46.408Z,96665.53
2023-11-13T12:00:17.156Z,96657.38
2023-11-13T12:02:45.532Z,96654.53
2023-11-13T12:05:14.743Z,96650.25
2023-11-13T12:07:42.809Z,96637.00
2023-11-13T12:10:13.400Z,96635.56
2023-11-13T12:12:42.792Z,96624.16
2023-11-13T12:15:12.080Z,96624.75
2023-11-13T12:17:40.817Z,96625.19
2023-11-13T12:20:18.106Z,96607.84
2023-11-13T12:22:49.619Z,96603.19
2023-11-13T12:25:18.408Z,96595.84
2023-11-13T12:27:47.458Z,96590.19
2023-11-13T12:30:17.791Z,96576.75
2023-11-13T12:32:46.266Z,96573.06
2023-11-13T12:35:14.281Z,96580.19
2023-11-13T12:37:43.390Z,96577.34
2023-11-13T12:40:12.547Z,96576.13
2023-11-13T12:42:41.858Z,96571.00
2023-11-13T12:45:13.204Z,96571.63
2023-11-13T12:47:45.746Z,96574.47
2023-11-13T12:50:16.714Z,96563.44
2023-11-13T12:52:47.724Z,96553.22
2023-11-13T12:55:17.190Z,96549.50
2023-11-13T12:57:46.427Z,96530.16
2023-11-13T13:00:17.321Z,96528.13
2023-11-13T13:02:48.110Z,96518.16
2023-11-13T13:05:26.190Z,96516.09
2023-11-13T13:07:59.110Z,96501.84
2023-11-13T13:10:27.057Z,96506.56
2023-11-13T13:12:56.123Z,96494.13
2023-11-13T13:15:27.934Z,96484.13
2023-11-13T13:17:55.911Z,96485.38
2023-11-13T13:20:30.917Z,96486.19
2023-11-13T13:22:59.647Z,96480.91
2023-11-13T13:25:31.097Z,96459.69
2023-11-13T13:28:00.418Z,96442.97
2023-11-13T13:30:33.326Z,96442.78
2023-11-13T13:33:02.835Z,96436.66
2023-11-13T13:35:30.716Z,96436.66
2023-11-13T13:37:58.405Z,96426.06
2023-11-13T13:40:26.988Z,96425.06
2023-11-13T13:43:00.387Z,96414.66
2023-11-13T13:45:30.358Z,96419.13
2023-11-13T13:47:58.624Z,96426.44
2023-11-13T13:50:26.731Z,96419.31
2023-11-13T13:52:57.898Z,96408.72
2023-11-13T13:55:29.268Z,96404.06
2023-11-13T13:58:02.565Z,96400.38
2023-11-13T14:00:37.898Z,96400.19
2023-11-13T14:03:12.153Z,96390.41
2023-11-13T14:05:44.624Z,96382.25
2023-11-13T14:08:17.480Z,96383.69
2023-11-13T14:10:52.273Z,96366.56
2023-11-13T14:13:23.235Z,96370.03
2023-11-13T14:16:04.015Z,96364.13
2023-11-13T14:18:37.395Z,96361.91
2023-11-13T14:21:06.367Z,96365.16
2023-11-13T14:23:33.996Z,96360.69
2023-11-13T14:26:01.847Z,96356.78
2023-11-13T14:28:29.512Z,96346.63
2023-11-13T14:30:58.677Z,96343.97
2023-11-13T14:33:27.363Z,96348.06
2023-11-13T14:35:55.231Z,96351.91
2023-11-13T14:38:22.870Z,96351.09
2023-11-13T14:40:50.806Z,96353.38
2023-11-13T14:43:18.507Z,96351.97
2023-11-13T14:45:46.379Z,96337.06
2023-11-13T14:48:15.791Z,96323.81
2023-11-13T14:50:43.517Z,96330.94
2023-11-13T14:53:11.161Z,96330.34
2023-11-13T14:55:39.905Z,96319.53
2023-11-13T14:58:07.636Z,96307.88
2023-11-13T15:00:35.323Z,96300.34
2023-11-13T15:03:03.577Z,96292.81
2023-11-13T15:05:32.659Z,96289.53
2023-11-13T15:08:00.322Z,96285.06
2023-11-13T15:10:28.264Z,96276.91
2023-11-13T15:12:56.016Z,96264.66
2023-11-13T15:15:23.661Z,96262.00
2023-11-13T15:17:52.122Z,96268.13
2023-11-13T15:20:21.863Z,96258.97
2023-11-13T15:23:09.004Z,96257.13
2023-11-13T15:25:42.623Z,96251.59
2023-11-13T15:28:11.432Z,96240.38
2023-11-13T15:30:40.092Z,96224.25
2023-11-13T15:33:09.393Z,96213.44
2023-11-13T15:35:37.612Z,96202.84
2023-11-13T15:38:06.570Z,96187.28
2023-11-13T15:40:34.929Z,96195.88
2023-11-13T15:43:03.120Z,96184.03
2023-11-13T15:45:32.150Z,96167.91
2023-11-13T15:48:00.774Z,96152.00
2023-11-13T15:50:30.352Z,96148.13
2023-11-13T15:52:58.167Z,96151.75
2023-11-13T15:55:27.161Z,96147.25
2023-11-13T15:57:54.804Z,96128.25
2023-11-13T16:00:24.054Z,96118.00
2023-11-13T16:02:51.851Z,96108.38
2023-11-13T16:05:20.484Z,96121.81
2023-11-13T16:07:49.228Z,96090.38
2023-11-13T16:10:17.198Z,96105.84
2023-11-13T16:12:47.281Z,96108.69
2023-11-13T16:15:15.024Z,96114.16
2023-11-13T16:17:43.713Z,96119.06
2023-11-13T16:20:14.607Z,96102.50
2023-11-13T16:22:45.129Z,96093.88
2023-11-13T16:25:14.140Z,96109.13
2023-11-13T16:27:42.218Z,96110.34
2023-11-13T16:30:12.334Z,96125.00
2023-11-13T16:32:41.245Z,96131.47
2023-11-13T16:35:11.414Z,96142.72
2023-11-13T16:37:39.592Z,96155.53
2023-11-13T16:40:08.615Z,96151.03
2023-11-13T16:42:38.083Z,96153.88
2023-11-13T16:45:10.384Z,96155.16
2023-11-13T16:47:39.457Z,96160.91
2023-11-13T16:50:09.842Z,96149.84
2023-11-13T16:52:39.138Z,96158.38
2023-11-13T16:55:08.186Z,96146.72
2023-11-13T16:57:37.724Z,96141.41
2023-11-13T17:00:10.162Z,96133.81
2023-11-13T17:02:41.400Z,96129.91
2023-11-13T17:05:10.211Z,96127.47
2023-11-13T17:07:38.122Z,96118.25
2023-11-13T17:10:06.779Z,96112.81
2023-11-13T17:12:34.538Z,96092.91
2023-11-13T17:15:02.155Z,96089.41
2023-11-13T17:17:30.143Z,96092.41
2023-11-13T17:20:00.773Z,96087.72
2023-11-13T17:22:30.942Z,96080.28
2023-11-13T17:24:59.516Z,96067.94
2023-11-13T17:27:27.752Z,96054.06
2023-11-13T17:29:56.024Z,96054.56
2023-11-13T17:32:23.813Z,96058.28
2023-11-13T17:34:51.757Z,96069.97
2023-11-13T17:37:20.816Z,96060.50
2023-11-13T17:39:48.813Z,96053.91
2023-11-13T17:42:16.755Z,96047.53
2023-11-13T17:44:45.923Z,96034.22
2023-11-13T17:47:15.945Z,96018.94
2023-11-13T17:49:44.199Z,96016.78
2023-11-13T17:52:12.214Z,96027.78
2023-11-13T17:54:41.245Z,96022.91
2023-11-13T17:57:11.689Z,96022.91
2023-11-13T17:59:39.410Z,96018.03
2023-11-13T18:02:09.004Z,96015.03
2023-11-13T18:04:37.152Z,96004.56
2023-11-13T18:07:05.441Z,95995.75
2023-11-13T18:09:33.320Z,96004.09
2023-11-13T18:12:02.373Z,95988.91
2023-11-13T18:14:30.196Z,95984.03
2023-11-13T18:16:57.970Z,95985.06
2023-11-13T18:19:25.781Z,95993.06
2023-11-13T18:21:53.847Z,95975.19
2023-11-13T18:24:21.440Z,95978.53
2023-11-13T18:26:49.535Z,95985.63
2023-11-13T18:29:18.729Z,95978.19
2023-11-13T18:31:47.556Z,95974.72
2023-11-13T18:34:17.326Z,95979.56
2023-11-13T18:36:45.219Z,95964.69
2023-11-13T18:39:13.488Z,95960.50
2023-11-13T18:41:41.065Z,95960.25
2023-11-13T18:44:08.751Z,95961.56
2023-11-13T18:46:38.222Z,95962.22
2023-11-13T18:49:06.683Z,95958.13
2023-11-13T18:51:34.348Z,95956.72
2023-11-13T18:54:02.270Z,95963.69
2023-11-13T18:56:29.913Z,95969.84
2023-11-13T18:58:57.588Z,95971.94
2023-11-13T19:01:27.898Z,95965.47
2023-11-13T19:03:57.099Z,95958.16
2023-11-13T19:06:24.818Z,95957.41
2023-11-13T19:08:52.421Z,95964.16
2023-11-13T19:11:20.483Z,95955.09
2023-11-13T19:13:49.852Z,95961.59
2023-11-13T19:16:17.744Z,95948.69
2023-11-13T19:18:46.139Z,95942.41
2023-11-13T19:21:15.282Z,95945.38
2023-11-13T19:23:43.028Z,95941.19
2023-11-13T19:26:11.178Z,95945.78
2023-11-13T19:28:38.908Z,95952.13
2023-11-13T19:31:07.004Z,95963.63
2023-11-13T19:33:34.739Z,95958.69
2023-11-13T19:36:02.706Z,95957.16
2023-11-13T19:38:31.707Z,95947.53
2023-11-13T19:40:59.537Z,95936.06
2023-11-13T19:43:27.207Z,95930.47
2023-11-13T19:45:54.899Z,95939.00
2023-11-13T19:48:24.346Z,95944.09
2023-11-13T19:50:54.040Z,95962.53
2023-11-13T19:53:21.737Z,95934.75
2023-11-13T19:55:50.854Z,95933.94
2023-11-13T19:58:18.525Z,95942.47
2023-11-13T20:00:47.972Z,95952.19
2023-11-13T20:03:16.774Z,95942.13
2023-11-13T20:05:44.683Z,95939.53
2023-11-13T20:08:12.316Z,95949.09
2023-11-13T20:10:40.570Z,95952.28
2023-11-13T20:13:10.054Z,95967.75
2023-11-13T20:15:38.025Z,95950.88
2023-11-13T20:18:07.672Z,95973.56
2023-11-13T20:20:36.472Z,96009.53
2023-11-13T20:23:04.239Z,96005.97
2023-11-13T20:25:34.477Z,96015.38
2023-11-13T20:28:02.560Z,96023.81
2023-11-13T20:30:31.488Z,96042.13
2023-11-13T20:32:59.186Z,96039.19
2023-11-13T20:35:28.141Z,96038.94
2023-11-13T20:37:55.803Z,96052.13
2023-11-13T20:40:24.061Z,96073.63
2023-11-13T20:42:52.553Z,96070.13
2023-11-13T20:45:20.463Z,96067.34
2023-11-13T20:47:49.630Z,96055.97
2023-11-13T20:50:19.262Z,96051.59
2023-11-13T20:52:47.150Z,96050.72
2023-11-13T20:55:15.054Z,96051.78
2023-11-13T20:57:42.689Z,96052.94
2023-11-13T21:00:12.748Z,96045.41
2023-11-13T21:02:40.563Z,96044.94
2023-11-13T21:05:10.125Z,96049.69
2023-11-13T21:07:37.948Z,96069.53
2023-11-13T21:10:09.310Z,96058.97
2023-11-13T21:12:37.107Z,96067.66
2023-11-13T21:15:05.641Z,96076.78
2023-11-13T21:17:33.794Z,96071.31
2023-11-13T21:20:04.188Z,96074.53
2023-11-13T21:22:33.532Z,96074.72
2023-11-13T21:25:01.418Z,96081.41
2023-11-13T21:27:29.096Z,96086.84
2023-11-13T21:29:56.730Z,96098.75
2023-11-13T21:32:24.551Z,96114.63
2023-11-13T21:34:53.119Z,96131.19
2023-11-13T21:37:23.254Z,96140.91
2023-11-13T21:39:52.277Z,96140.66
2023-11-13T21:42:20.530Z,96142.38
2023-11-13T21:44:48.179Z,96164.97
2023-11-13T21:47:15.983Z,96167.03
2023-11-13T21:49:43.672Z,96181.59
2023-11-13T21:52:11.400Z,96205.56
2023-11-13T21:54:39.071Z,96199.19
2023-11-13T21:57:08.223Z,96193.66
2023-11-13T21:59:35.923Z,96192.63
2023-11-13T22:02:03.749Z,96196.31
2023-11-13T22:04:31.557Z,96202.69
2023-11-13T22:06:59.265Z,96214.97
2023-11-13T22:09:26.900Z,96226.44
2023-11-13T22:11:54.616Z,96220.88
2023-11-13T22:14:23.671Z,96236.13
2023-11-13T22:16:51.457Z,96233.69
2023-11-13T22:19:20.492Z,96251.22
2023-11-13T22:21:48.165Z,96251.44
2023-11-13T22:24:16.957Z,96257.75
2023-11-13T22:26:44.599Z,96254.31
2023-11-13T22:29:12.230Z,96251.31
2023-11-13T22:31:41.296Z,96245.81
2023-11-13T22:34:09.873Z,96238.03
2023-11-13T22:36:38.419Z,96240.91
2023-11-13T22:39:06.128Z,96246.84
2023-11-13T22:41:33.768Z,96234.22
2023-11-13T22:44:01.661Z,96238.19
2023-11-13T22:46:29.396Z,96245.22
2023-11-13T22:48:59.160Z,96236.19
2023-11-13T22:51:26.869Z,96242.63
2023-11-13T22:53:54.500Z,96245.31
2023-11-13T22:56:22.626Z,96231.16
2023-11-13T22:58:52.981Z,96239.13
2023-11-13T23:01:21.231Z,96240.72
2023-11-13T23:03:49.810Z,96253.28
2023-11-13T23:06:19.124Z,96249.19
2023-11-13T23:08:47.006Z,96254.97
2023-11-13T23:11:15.439Z,96267.91
2023-11-13T23:13:43.547Z,96265.06
2023-11-13T23:16:11.986Z,96272.34
2023-11-13T23:18:39.615Z,96272.84
2023-11-13T23:21:07.885Z,96270.84
2023-11-13T23:23:36.887Z,96281.56
2023-11-13T23:26:05.732Z,96273.84
2023-11-13T23:28:33.391Z,96266.03
2023-11-13T23:31:01.086Z,96266.81
2023-11-13T23:33:28.789Z,96274.56
2023-11-13T23:35:56.629Z,96272.97
2023-11-13T23:38:25.259Z,96263.44
2023-11-13T23:40:54.293Z,96269.34
2023-11-13T23:43:21.948Z,96265.88
2023-11-13T23:45:49.704Z,96253.75
2023-11-13T23:48:17.416Z,96262.63
2023-11-13T23:50:45.146Z,96273.31
2023-11-13T23:53:13.395Z,96272.91
2023-11-13T23:55:41.694Z,96276.59
2023-11-13T23:58:11.132Z,96287.41
